6NC5 weather

Thompson Farms Airport
Whitakers, North Carolina, United States

Public forecast

Using degrees Fahrenheit for public forecast. Weather courtesy of forecast.io.

METAR (pilot weather report)

Closest report is Tarboro Edgecombe Airport, 7.4 nm (13.7 km) SE. Retrieved 2019/06/27 11:40 UTC (0 seconds ago):

KETC 271140Z AUTO 00000KT 7SM CLR 22/21 RMK AO2 PWINO T02160208

TAF (pilot weather forecast)

Closest forecast is Rocky Mount Wilson Regional Airport, 14.8 nm (27.4 km) SW. Retrieved 2019/06/27 06:42 UTC (5 hours ago):

TAF KRWI 270540Z 2706/2806 VRB04KT P6SM BKN250 FM271300 VRB04KT P6SM SCT250 FM271900 12004KT P6SM SCT060 BKN250 FM280300 20002KT P6SM SCT250